createdAt,value
2023-04-24T00:02:00.817Z,66.70
2023-04-24T00:04:28.166Z,66.60
2023-04-24T00:06:58.366Z,66.50
2023-04-24T00:09:25.697Z,66.20
2023-04-24T00:11:53.274Z,66.10
2023-04-24T00:14:20.534Z,66.00
2023-04-24T00:16:47.658Z,65.90
2023-04-24T00:19:14.819Z,65.90
2023-04-24T00:21:42.729Z,66.00
2023-04-24T00:24:10.266Z,66.00
2023-04-24T00:26:37.356Z,66.30
2023-04-24T00:29:04.447Z,66.10
2023-04-24T00:31:31.531Z,66.20
2023-04-24T00:33:59.142Z,66.10
2023-04-24T00:36:26.396Z,66.30
2023-04-24T00:38:54.145Z,66.00
2023-04-24T00:41:22.268Z,66.00
2023-04-24T00:43:49.532Z,65.90
2023-04-24T00:46:17.786Z,65.70
2023-04-24T00:48:45.098Z,65.50
2023-04-24T00:51:12.257Z,65.30
2023-04-24T00:53:39.366Z,65.30
2023-04-24T00:56:06.874Z,65.10
2023-04-24T00:58:34.058Z,65.00
2023-04-24T01:01:02.119Z,64.90
2023-04-24T01:03:38.209Z,64.90
2023-04-24T01:06:06.614Z,64.70
2023-04-24T01:08:34.843Z,65.30
2023-04-24T01:11:04.892Z,64.70
2023-04-24T01:13:33.169Z,64.60
2023-04-24T01:16:01.592Z,64.60
2023-04-24T01:18:29.297Z,64.60
2023-04-24T01:21:00.360Z,64.50
2023-04-24T01:23:28.034Z,64.40
2023-04-24T01:25:55.266Z,64.40
2023-04-24T01:28:22.730Z,64.30
2023-04-24T01:30:50.070Z,64.30
2023-04-24T01:33:17.562Z,64.40
2023-04-24T01:35:44.878Z,64.40
2023-04-24T01:38:12.034Z,64.60
2023-04-24T01:40:39.355Z,64.50
2023-04-24T01:43:06.740Z,64.40
2023-04-24T01:45:34.017Z,64.90
2023-04-24T01:48:01.997Z,64.70
2023-04-24T01:50:29.267Z,64.70
2023-04-24T01:52:56.500Z,64.70
2023-04-24T01:55:23.609Z,64.60
2023-04-24T01:57:51.299Z,64.60
2023-04-24T02:00:18.370Z,64.60
2023-04-24T02:02:48.029Z,64.40
2023-04-24T02:05:16.067Z,64.70
2023-04-24T02:07:43.251Z,64.80
2023-04-24T02:10:11.191Z,64.90
2023-04-24T02:12:38.282Z,64.80
2023-04-24T02:15:06.271Z,65.00
2023-04-24T02:17:33.372Z,65.00
2023-04-24T02:20:00.459Z,64.90
2023-04-24T02:22:27.522Z,64.90
2023-04-24T02:24:54.618Z,64.90
2023-04-24T02:27:21.714Z,65.00
2023-04-24T02:29:48.784Z,64.90
2023-04-24T02:32:16.817Z,65.30
2023-04-24T02:34:44.162Z,65.30
2023-04-24T02:37:11.301Z,65.30
2023-04-24T02:39:38.421Z,65.50
2023-04-24T02:42:05.605Z,65.30
2023-04-24T02:44:32.673Z,65.40
2023-04-24T02:46:59.764Z,65.40
2023-04-24T02:49:27.158Z,65.70
2023-04-24T02:51:54.191Z,65.50
2023-04-24T02:54:21.296Z,65.40
2023-04-24T02:56:48.353Z,65.40
2023-04-24T02:59:15.489Z,66.40
2023-04-24T03:01:42.688Z,65.40
2023-04-24T03:04:10.063Z,65.50
2023-04-24T03:06:37.247Z,65.50
2023-04-24T03:09:04.724Z,65.50
2023-04-24T03:11:31.803Z,65.50
2023-04-24T03:13:58.859Z,65.60
2023-04-24T03:16:26.455Z,65.60
2023-04-24T03:18:53.570Z,65.50
2023-04-24T03:21:20.815Z,65.70
2023-04-24T03:23:47.847Z,65.60
2023-04-24T03:26:15.003Z,65.50
2023-04-24T03:28:42.191Z,65.30
2023-04-24T03:31:09.407Z,65.30
2023-04-24T03:33:37.187Z,65.40
2023-04-24T03:36:06.074Z,65.90
2023-04-24T03:38:33.192Z,65.20
2023-04-24T03:41:00.388Z,65.40
2023-04-24T03:43:28.427Z,65.40
2023-04-24T03:45:55.648Z,65.40
2023-04-24T03:48:22.786Z,65.30
2023-04-24T03:50:49.849Z,65.10
2023-04-24T03:53:16.919Z,66.00
2023-04-24T03:55:44.145Z,65.20
2023-04-24T03:58:12.214Z,65.50
2023-04-24T04:00:41.373Z,65.20
2023-04-24T04:03:08.737Z,65.20
2023-04-24T04:05:36.002Z,65.30
2023-04-24T04:08:03.193Z,65.20
2023-04-24T04:10:30.292Z,65.30
2023-04-24T04:12:57.375Z,65.50
2023-04-24T04:15:24.492Z,65.30
2023-04-24T04:17:51.675Z,65.50
2023-04-24T04:20:18.855Z,65.40
2023-04-24T04:22:45.921Z,65.40
2023-04-24T04:25:14.679Z,65.50
2023-04-24T04:27:42.541Z,65.50
2023-04-24T04:30:10.888Z,65.30
2023-04-24T04:32:38.368Z,65.40
2023-04-24T04:35:06.171Z,65.30
2023-04-24T04:37:36.874Z,65.30
2023-04-24T04:40:07.909Z,65.40
2023-04-24T04:42:35.222Z,65.40
2023-04-24T04:45:03.199Z,65.60
2023-04-24T04:47:32.807Z,65.40
2023-04-24T04:49:59.925Z,65.20
2023-04-24T04:52:27.719Z,65.30
2023-04-24T04:54:54.826Z,65.30
2023-04-24T04:57:22.441Z,65.20
2023-04-24T04:59:49.562Z,65.20
2023-04-24T05:02:16.847Z,65.00
2023-04-24T05:04:44.292Z,65.00
2023-04-24T05:07:12.387Z,65.50
2023-04-24T05:09:39.452Z,64.90
2023-04-24T05:12:06.902Z,64.80
2023-04-24T05:14:33.991Z,64.70
2023-04-24T05:17:02.027Z,64.60
2023-04-24T05:19:29.254Z,64.30
2023-04-24T05:21:56.380Z,64.10
2023-04-24T05:24:23.456Z,64.10
2023-04-24T05:26:50.723Z,64.10
2023-04-24T05:29:20.175Z,63.80
2023-04-24T05:31:47.278Z,63.70
2023-04-24T05:34:15.216Z,63.80
2023-04-24T05:36:42.435Z,63.40
2023-04-24T05:39:09.795Z,63.50
2023-04-24T05:41:36.866Z,63.60
2023-04-24T05:44:03.949Z,63.80
2023-04-24T05:46:31.147Z,63.60
2023-04-24T05:48:58.396Z,63.40
2023-04-24T05:51:25.832Z,63.20
2023-04-24T05:53:53.199Z,62.70
2023-04-24T05:56:20.426Z,62.30
2023-04-24T05:58:47.943Z,62.10
2023-04-24T06:01:17.773Z,62.20
2023-04-24T06:03:44.988Z,62.20
2023-04-24T06:06:12.244Z,62.30
2023-04-24T06:08:39.342Z,62.10
2023-04-24T06:11:06.441Z,62.00
2023-04-24T06:13:33.532Z,62.00
2023-04-24T06:16:00.588Z,62.00
2023-04-24T06:18:27.661Z,62.00
2023-04-24T06:20:56.248Z,60.60
2023-04-24T06:23:23.387Z,61.50
2023-04-24T06:25:51.170Z,61.00
2023-04-24T06:28:18.633Z,61.00
2023-04-24T06:30:45.752Z,61.20
2023-04-24T06:33:20.354Z,61.10
2023-04-24T06:35:48.928Z,61.50
2023-04-24T06:38:17.108Z,60.70
2023-04-24T06:40:44.630Z,60.80
2023-04-24T06:43:12.257Z,61.60
2023-04-24T06:45:40.866Z,60.90
2023-04-24T06:48:08.257Z,61.10
2023-04-24T06:50:35.471Z,61.00
2023-04-24T06:53:02.549Z,61.00
2023-04-24T06:55:29.701Z,61.20
2023-04-24T06:57:56.805Z,61.50
2023-04-24T07:00:25.432Z,61.60
2023-04-24T07:02:52.774Z,61.50
2023-04-24T07:05:21.089Z,61.50
2023-04-24T07:07:48.856Z,60.90
2023-04-24T07:10:16.015Z,60.90
2023-04-24T07:12:43.136Z,61.10
2023-04-24T07:15:10.733Z,61.10
2023-04-24T07:17:39.516Z,61.00
2023-04-24T07:20:09.240Z,61.00
2023-04-24T07:22:36.292Z,60.70
2023-04-24T07:25:04.132Z,60.60
2023-04-24T07:27:31.209Z,60.60
2023-04-24T07:29:58.277Z,60.60
2023-04-24T07:32:25.397Z,59.90
2023-04-24T07:34:52.569Z,59.90
2023-04-24T07:37:20.025Z,59.70
2023-04-24T07:39:47.420Z,59.60
2023-04-24T07:42:14.508Z,58.90
2023-04-24T07:44:41.622Z,59.30
2023-04-24T07:47:09.263Z,59.10
2023-04-24T07:49:36.476Z,58.10
2023-04-24T07:52:03.674Z,58.40
2023-04-24T07:54:30.849Z,58.10
2023-04-24T07:56:57.939Z,57.80
2023-04-24T07:59:25.043Z,57.70
2023-04-24T08:01:52.176Z,57.80
2023-04-24T08:04:19.901Z,58.20
2023-04-24T08:06:49.042Z,57.30
2023-04-24T08:09:17.446Z,57.50
2023-04-24T08:11:45.012Z,57.50
2023-04-24T08:14:14.577Z,57.70
2023-04-24T08:16:42.165Z,56.90
2023-04-24T08:19:09.622Z,57.20
2023-04-24T08:21:36.695Z,56.90
2023-04-24T08:24:06.262Z,56.60
2023-04-24T08:26:33.343Z,56.60
2023-04-24T08:29:00.566Z,56.50
2023-04-24T08:31:28.073Z,56.20
2023-04-24T08:33:55.212Z,55.30
2023-04-24T08:36:26.507Z,55.80
2023-04-24T08:39:00.315Z,55.90
2023-04-24T08:41:28.286Z,56.10
2023-04-24T08:43:56.241Z,56.00
2023-04-24T08:46:23.930Z,56.00
2023-04-24T08:48:53.246Z,56.00
2023-04-24T08:51:21.417Z,56.10
2023-04-24T08:53:48.748Z,56.00
2023-04-24T08:56:17.171Z,56.10
2023-04-24T08:58:44.803Z,56.50
2023-04-24T09:01:12.591Z,56.50
2023-04-24T09:03:40.786Z,56.50
2023-04-24T09:06:10.462Z,56.60
2023-04-24T09:08:37.755Z,57.30
2023-04-24T09:11:05.721Z,57.40
2023-04-24T09:13:33.683Z,58.10
2023-04-24T09:16:01.606Z,57.40
2023-04-24T09:18:28.707Z,57.70
2023-04-24T09:21:13.981Z,57.90
2023-04-24T09:23:41.904Z,58.20
2023-04-24T09:26:10.975Z,58.60
2023-04-24T09:28:39.009Z,58.50
2023-04-24T09:31:09.309Z,58.60
2023-04-24T09:33:37.134Z,59.30
2023-04-24T09:36:04.635Z,59.50
2023-04-24T09:38:38.796Z,59.20
2023-04-24T09:41:08.710Z,59.20
2023-04-24T09:43:36.808Z,59.50
2023-04-24T09:46:09.725Z,59.80
2023-04-24T09:48:38.688Z,59.40
2023-04-24T09:51:12.386Z,59.50
2023-04-24T09:53:42.548Z,60.00
2023-04-24T09:56:11.066Z,60.20
2023-04-24T09:58:38.336Z,60.50
2023-04-24T10:01:06.125Z,60.60
2023-04-24T10:03:34.530Z,60.70
2023-04-24T10:06:03.014Z,60.60
2023-04-24T10:08:39.416Z,61.30
2023-04-24T10:11:07.329Z,61.20
2023-04-24T10:13:35.407Z,61.00
2023-04-24T10:16:04.998Z,61.60
2023-04-24T10:18:33.360Z,61.60
2023-04-24T10:21:01.337Z,62.40
2023-04-24T10:23:29.892Z,62.70
2023-04-24T10:25:57.095Z,63.10
2023-04-24T10:28:26.044Z,63.60
2023-04-24T10:30:56.283Z,64.60
2023-04-24T10:33:24.809Z,64.70
2023-04-24T10:35:52.771Z,64.40
2023-04-24T10:38:25.936Z,64.20
2023-04-24T10:41:07.554Z,63.70
2023-04-24T10:43:34.975Z,63.80
2023-04-24T10:46:04.336Z,64.10
2023-04-24T10:48:31.821Z,64.60
2023-04-24T10:50:59.045Z,64.70
2023-04-24T10:53:29.546Z,64.40
2023-04-24T10:56:14.507Z,64.80
2023-04-24T10:58:50.173Z,64.90
2023-04-24T11:01:31.096Z,65.00
2023-04-24T11:04:04.595Z,65.10
2023-04-24T11:06:37.048Z,65.00
2023-04-24T11:09:16.535Z,65.40
2023-04-24T11:11:46.903Z,64.40
2023-04-24T11:14:17.375Z,64.00
2023-04-24T11:17:03.024Z,63.80
2023-04-24T11:19:30.731Z,63.50
2023-04-24T11:22:03.175Z,63.10
2023-04-24T11:24:40.782Z,63.50
2023-04-24T11:27:15.291Z,63.60
2023-04-24T11:29:49.936Z,63.90
2023-04-24T11:32:31.593Z,64.50
2023-04-24T11:35:02.384Z,65.60
2023-04-24T11:37:36.136Z,65.70
2023-04-24T11:40:05.179Z,66.80
2023-04-24T11:42:40.032Z,67.70
2023-04-24T11:45:14.126Z,66.70
2023-04-24T11:47:41.940Z,66.80
2023-04-24T11:50:12.104Z,67.30
2023-04-24T11:52:41.479Z,68.10
2023-04-24T11:55:15.401Z,68.20
2023-04-24T11:57:51.165Z,67.60
2023-04-24T12:00:22.868Z,67.40
2023-04-24T12:02:51.256Z,66.80
2023-04-24T12:05:27.583Z,66.40
2023-04-24T12:07:55.840Z,66.30
2023-04-24T12:10:25.236Z,66.10
2023-04-24T12:12:53.059Z,64.60
2023-04-24T12:15:21.638Z,64.70
2023-04-24T12:17:51.517Z,65.30
2023-04-24T12:20:24.337Z,64.20
2023-04-24T12:22:56.186Z,64.30
2023-04-24T12:25:26.050Z,63.40
2023-04-24T12:27:55.896Z,63.00
2023-04-24T12:30:29.682Z,63.40
2023-04-24T12:32:59.365Z,63.50
2023-04-24T12:35:29.343Z,63.30
2023-04-24T12:37:56.405Z,64.30
2023-04-24T12:40:27.164Z,65.50
2023-04-24T12:42:55.633Z,65.60
2023-04-24T12:45:26.293Z,65.40
2023-04-24T12:47:53.412Z,65.50
2023-04-24T12:50:20.783Z,65.40
2023-04-24T12:52:47.887Z,65.50
2023-04-24T12:55:15.033Z,65.50
2023-04-24T12:57:42.163Z,65.40
2023-04-24T13:00:09.841Z,65.40
2023-04-24T13:02:37.482Z,65.30
2023-04-24T13:05:05.123Z,65.20
2023-04-24T13:07:32.293Z,65.20
2023-04-24T13:09:59.383Z,66.30
2023-04-24T13:12:27.602Z,65.30
2023-04-24T13:14:55.211Z,65.50
2023-04-24T13:17:23.004Z,66.30
2023-04-24T13:19:51.342Z,66.00
2023-04-24T13:22:21.988Z,66.60
2023-04-24T13:24:51.895Z,66.40
2023-04-24T13:27:19.314Z,67.00
2023-04-24T13:29:46.837Z,67.60
2023-04-24T13:32:14.465Z,67.50
2023-04-24T13:34:41.584Z,67.60
2023-04-24T13:37:09.161Z,67.40
2023-04-24T13:39:36.725Z,67.40
2023-04-24T13:42:05.158Z,67.40
2023-04-24T13:44:32.390Z,67.50
2023-04-24T13:47:00.148Z,67.50
2023-04-24T13:49:27.918Z,67.80
2023-04-24T13:51:56.771Z,68.30
2023-04-24T13:54:26.855Z,68.00
2023-04-24T13:56:54.485Z,68.30
2023-04-24T13:59:22.807Z,68.00
2023-04-24T14:01:50.205Z,67.80
2023-04-24T14:04:17.905Z,67.50
2023-04-24T14:06:45.542Z,67.30
2023-04-24T14:09:13.728Z,67.70
2023-04-24T14:11:41.683Z,67.40
2023-04-24T14:14:09.221Z,67.40
2023-04-24T14:16:36.570Z,66.90
2023-04-24T14:19:03.704Z,66.60
2023-04-24T14:21:31.511Z,66.70
2023-04-24T14:23:58.658Z,66.50
2023-04-24T14:26:26.028Z,66.60
2023-04-24T14:29:00.782Z,66.70
2023-04-24T14:31:34.763Z,66.60
2023-04-24T14:34:01.986Z,66.80
2023-04-24T14:36:29.114Z,66.40
2023-04-24T14:38:56.509Z,66.30
2023-04-24T14:41:23.586Z,65.70
2023-04-24T14:43:50.749Z,65.80
2023-04-24T14:46:18.108Z,65.50
2023-04-24T14:48:45.371Z,65.30
2023-04-24T14:51:12.641Z,66.10
2023-04-24T14:53:39.766Z,66.30
2023-04-24T14:56:07.265Z,66.60
2023-04-24T14:58:34.390Z,66.30
2023-04-24T15:01:01.554Z,66.80
2023-04-24T15:03:28.927Z,66.90
2023-04-24T15:05:56.534Z,67.40
2023-04-24T15:08:23.646Z,67.90
2023-04-24T15:10:50.832Z,67.80
2023-04-24T15:13:17.965Z,68.00
2023-04-24T15:15:46.944Z,68.20
2023-04-24T15:18:15.182Z,68.00
2023-04-24T15:20:44.892Z,68.80
2023-04-24T15:23:12.067Z,68.40
2023-04-24T15:25:39.454Z,68.60
2023-04-24T15:28:07.043Z,69.00
2023-04-24T15:30:34.524Z,68.90
2023-04-24T15:33:03.495Z,69.00
2023-04-24T15:35:30.789Z,69.60
2023-04-24T15:37:58.074Z,69.20
2023-04-24T15:40:25.291Z,70.00
2023-04-24T15:42:52.441Z,70.10
2023-04-24T15:45:19.734Z,69.80
2023-04-24T15:47:51.045Z,69.50
2023-04-24T15:50:19.496Z,69.80
2023-04-24T15:52:46.670Z,69.80
2023-04-24T15:55:13.793Z,69.80
2023-04-24T15:57:40.967Z,70.80
2023-04-24T16:00:09.917Z,69.90
2023-04-24T16:02:37.229Z,70.00
2023-04-24T16:05:04.782Z,70.70
2023-04-24T16:07:32.068Z,70.90
2023-04-24T16:09:59.213Z,70.10
2023-04-24T16:12:28.983Z,70.00
2023-04-24T16:14:56.262Z,70.30
2023-04-24T16:17:23.703Z,70.50
2023-04-24T16:19:50.790Z,70.00
2023-04-24T16:22:17.928Z,69.80
2023-04-24T16:24:47.161Z,70.10
2023-04-24T16:27:15.442Z,70.10
2023-04-24T16:29:42.677Z,70.00
2023-04-24T16:32:10.850Z,69.90
2023-04-24T16:34:38.206Z,69.70
2023-04-24T16:37:06.586Z,69.90
2023-04-24T16:39:34.558Z,70.00
2023-04-24T16:42:01.955Z,69.80
2023-04-24T16:44:29.183Z,69.70
2023-04-24T16:46:56.885Z,69.70
2023-04-24T16:49:24.124Z,69.70
2023-04-24T16:51:51.272Z,70.40
2023-04-24T16:54:18.326Z,70.00
2023-04-24T16:56:45.938Z,69.80
2023-04-24T16:59:13.099Z,71.20
2023-04-24T17:01:40.774Z,70.60
2023-04-24T17:04:08.066Z,71.00
2023-04-24T17:06:35.372Z,70.40
2023-04-24T17:09:03.844Z,70.30
2023-04-24T17:11:31.372Z,70.50
2023-04-24T17:14:01.936Z,71.60
2023-04-24T17:16:29.376Z,71.50
2023-04-24T17:18:56.569Z,71.10
2023-04-24T17:21:23.833Z,72.90
2023-04-24T17:23:50.991Z,74.30
2023-04-24T17:26:18.106Z,74.20
2023-04-24T17:28:45.437Z,73.90
2023-04-24T17:31:12.587Z,73.70
2023-04-24T17:33:39.727Z,73.20
2023-04-24T17:36:07.398Z,73.50
2023-04-24T17:38:34.536Z,75.30
2023-04-24T17:41:01.708Z,75.20
2023-04-24T17:43:28.864Z,75.40
2023-04-24T17:45:56.584Z,74.90
2023-04-24T17:48:23.937Z,74.80
2023-04-24T17:50:51.798Z,75.70
2023-04-24T17:53:19.590Z,76.50
2023-04-24T17:55:46.866Z,75.90
2023-04-24T17:58:14.491Z,75.80
2023-04-24T18:00:42.186Z,75.50
2023-04-24T18:03:09.862Z,75.30
2023-04-24T18:05:38.831Z,75.50
2023-04-24T18:08:06.192Z,76.00
2023-04-24T18:10:37.186Z,76.30
2023-04-24T18:13:05.443Z,76.90
2023-04-24T18:15:32.923Z,78.10
2023-04-24T18:18:00.175Z,77.60
2023-04-24T18:20:27.624Z,77.20
2023-04-24T18:22:54.935Z,79.00
2023-04-24T18:25:26.936Z,77.90
2023-04-24T18:27:55.924Z,77.60
2023-04-24T18:30:24.494Z,78.50
2023-04-24T18:32:53.633Z,78.20
2023-04-24T18:35:21.573Z,78.20
2023-04-24T18:37:49.233Z,78.50
2023-04-24T18:40:16.896Z,79.50
2023-04-24T18:42:44.773Z,79.30
2023-04-24T18:45:14.689Z,78.50
2023-04-24T18:47:43.773Z,79.10
2023-04-24T18:50:11.667Z,78.30
2023-04-24T18:52:38.763Z,79.50
2023-04-24T18:55:07.059Z,79.30
2023-04-24T18:57:34.552Z,80.80
2023-04-24T19:00:01.907Z,80.30
2023-04-24T19:02:29.239Z,79.70
2023-04-24T19:04:56.397Z,79.50
2023-04-24T19:07:23.544Z,79.60
2023-04-24T19:09:50.698Z,78.80
2023-04-24T19:12:17.989Z,80.60
2023-04-24T19:14:46.393Z,79.30
2023-04-24T19:17:14.070Z,80.00
2023-04-24T19:19:41.279Z,79.80
2023-04-24T19:22:08.388Z,79.20
2023-04-24T19:24:35.524Z,80.10
2023-04-24T19:27:02.624Z,79.10
2023-04-24T19:29:29.672Z,79.60
2023-04-24T19:31:58.705Z,80.40
2023-04-24T19:34:26.509Z,82.40
2023-04-24T19:36:53.772Z,82.20
2023-04-24T19:39:21.070Z,82.90
2023-04-24T19:41:48.229Z,81.70
2023-04-24T19:44:15.745Z,81.80
2023-04-24T19:46:43.653Z,82.10
2023-04-24T19:49:10.983Z,82.10
2023-04-24T19:51:38.660Z,80.80
2023-04-24T19:54:06.527Z,81.10
2023-04-24T19:56:34.743Z,80.80
2023-04-24T19:59:01.951Z,80.90
2023-04-24T20:01:29.177Z,80.70
2023-04-24T20:03:56.594Z,80.40
2023-04-24T20:06:23.883Z,80.00
2023-04-24T20:08:51.197Z,80.40
2023-04-24T20:11:18.558Z,80.60
2023-04-24T20:13:45.995Z,80.20
2023-04-24T20:16:13.231Z,81.20
2023-04-24T20:18:40.505Z,80.60
2023-04-24T20:21:09.298Z,80.40
2023-04-24T20:23:36.401Z,80.40
2023-04-24T20:26:04.990Z,80.20
2023-04-24T20:28:32.178Z,80.40
2023-04-24T20:30:59.596Z,80.40
2023-04-24T20:33:28.148Z,80.60
2023-04-24T20:35:55.730Z,80.60
2023-04-24T20:38:23.003Z,80.40
2023-04-24T20:40:57.807Z,80.50
2023-04-24T20:43:28.790Z,80.30
2023-04-24T20:46:00.265Z,80.20
2023-04-24T20:48:27.595Z,80.50
2023-04-24T20:50:56.017Z,80.40
2023-04-24T20:53:23.596Z,80.60
2023-04-24T20:55:51.108Z,80.40
2023-04-24T20:58:18.904Z,80.40
2023-04-24T21:00:46.996Z,80.10
2023-04-24T21:03:14.295Z,80.30
2023-04-24T21:05:41.534Z,80.30
2023-04-24T21:08:08.609Z,80.30
2023-04-24T21:10:35.933Z,80.20
2023-04-24T21:13:03.016Z,80.00
2023-04-24T21:15:30.892Z,80.20
2023-04-24T21:17:58.074Z,80.00
2023-04-24T21:20:25.380Z,80.00
2023-04-24T21:22:52.431Z,80.00
2023-04-24T21:25:19.537Z,79.70
2023-04-24T21:27:46.783Z,80.40
2023-04-24T21:30:14.037Z,79.80
2023-04-24T21:32:41.197Z,75.90
2023-04-24T21:35:08.711Z,77.30
2023-04-24T21:37:37.916Z,78.00
2023-04-24T21:40:05.747Z,76.30
2023-04-24T21:42:32.924Z,76.40
2023-04-24T21:45:00.026Z,75.30
2023-04-24T21:47:27.130Z,75.90
2023-04-24T21:49:54.287Z,75.50
2023-04-24T21:52:21.343Z,74.30
2023-04-24T21:54:48.395Z,74.00
2023-04-24T21:57:16.107Z,74.00
2023-04-24T21:59:43.621Z,74.10
2023-04-24T22:02:11.114Z,74.00
2023-04-24T22:04:38.354Z,73.80
2023-04-24T22:07:05.976Z,74.20
2023-04-24T22:09:33.079Z,74.10
2023-04-24T22:12:00.240Z,73.60
2023-04-24T22:14:27.309Z,73.90
2023-04-24T22:16:57.184Z,73.60
2023-04-24T22:19:26.414Z,73.80
2023-04-24T22:21:53.688Z,73.70
2023-04-24T22:24:20.922Z,73.60
2023-04-24T22:26:48.229Z,72.70
2023-04-24T22:29:15.486Z,73.30
2023-04-24T22:31:42.733Z,72.90
2023-04-24T22:34:10.317Z,72.90
2023-04-24T22:36:37.436Z,73.10
2023-04-24T22:39:05.532Z,73.20
2023-04-24T22:41:32.800Z,73.20
2023-04-24T22:44:00.047Z,73.50
2023-04-24T22:46:27.224Z,73.50
2023-04-24T22:48:54.341Z,73.60
2023-04-24T22:51:21.437Z,73.60
2023-04-24T22:53:49.739Z,73.70
2023-04-24T22:56:17.583Z,73.80
2023-04-24T22:58:44.654Z,73.90
2023-04-24T23:01:11.815Z,74.00
2023-04-24T23:03:39.289Z,74.10
2023-04-24T23:06:06.886Z,74.30
2023-04-24T23:08:33.975Z,74.30
2023-04-24T23:11:01.102Z,74.30
2023-04-24T23:13:28.275Z,74.10
2023-04-24T23:15:55.429Z,74.10
2023-04-24T23:18:22.517Z,74.30
2023-04-24T23:20:49.640Z,74.50
2023-04-24T23:23:16.773Z,74.90
2023-04-24T23:25:43.963Z,74.50
2023-04-24T23:28:11.140Z,74.50
2023-04-24T23:30:38.246Z,74.60
2023-04-24T23:33:05.554Z,74.50
2023-04-24T23:35:32.796Z,74.30
2023-04-24T23:37:59.902Z,73.90
2023-04-24T23:40:27.116Z,73.60
2023-04-24T23:43:05.530Z,73.50
2023-04-24T23:45:34.632Z,73.50
2023-04-24T23:48:02.005Z,73.00
2023-04-24T23:50:29.166Z,72.90
2023-04-24T23:52:56.607Z,73.20
2023-04-24T23:55:23.706Z,73.10
2023-04-24T23:57:50.863Z,73.10
